Latest Coastal Weather Observations for Tasman Island

IDT60701

Issued at 12:22 pm EST Monday 25 July 2016 (issued every 10 minutes, with the page automatically refreshed every 10 minutes)

About coastal observations | Map of coastal stations | Coastal observations for TAS | Marine services | Other Formats
Station Details ID: 094155 Name: TASMAN ISLAND Lat: -43.24 Lon: 148.00 Height: 240.0 m
Data from the previous 72 hours. | See also: Recent months at Tasman Island
Date/Time
EST
Temp
°C
Wind Pressure Rain since
9am
mm
Weather Cloud Vis
km
Sea
Height
m
Swell
Dir  Spd
kts
Gust
kts
hPa Trend Height
m
Period
s
Dir
25/12:00pm 9.2 WNW 8 15 996.8 - 0.0 - - - - - - -
25/11:30am 9.3 NW 10 16 997.3 - 0.0 - - - - - - -
25/11:00am 9.2 NW 7 10 997.6 - 0.0 - - - - - - -
25/10:30am 8.9 NW 6 10 997.7 - 0.0 - - - - - - -
25/10:00am 8.1 NW 9 13 997.7 - 0.0 - - - - - - -
25/09:30am 7.5 NNW 11 20 998.0 - 0.0 - - - - - - -
25/09:00am 7.5 NW 11 18 997.9 - 0.0 - - - - - - -
25/08:30am 7.6 NW 11 16 998.1 - 0.0 - - - - - - -
25/08:00am 7.0 NNW 8 14 998.1 - 0.0 - - - - - - -
25/07:30am 6.4 NNW 7 9 998.0 - 0.0 - - - - - - -
25/07:00am 7.6 NW 11 15 998.2 - 0.0 - - - - - - -
25/06:30am 7.4 NW 11 15 998.2 - 0.0 - - - - - - -
25/06:00am 7.4 NW 10 15 998.3 - 0.0 - - - - - - -
25/05:30am 6.6 NNW 10 18 998.3 - 0.0 - - - - - - -
25/05:00am 6.4 NW 10 16 998.5 - 0.0 - - - - - - -
25/04:30am 6.2 NNW 8 12 998.6 - 0.0 - - - - - - -
25/04:00am 6.2 NNW 10 18 998.4 - 0.0 - - - - - - -
25/03:30am 5.8 NNW 9 17 998.7 - 0.0 - - - - - - -
25/03:00am 5.6 NNW 8 15 999.1 - 0.0 - - - - - - -
25/02:30am 6.6 NW 10 16 999.1 - 0.0 - - - - - - -
25/02:00am 6.3 NNW 7 13 999.4 - 0.0 - - - - - - -
25/01:30am 5.6 NNW 6 11 999.5 - 0.0 - - - - - - -
25/01:00am 5.7 NNW 4 10 999.6 - 0.0 - - - - - - -
25/12:30am 6.5 NW 11 18 999.9 - 0.0 - - - - - - -
25/12:00am 6.2 NNW 9 17 1000.1 - 0.0 - - - - - - -
 
Date/Time
EST
Temp
°C
Wind Pressure Rain since
9am
mm
Weather Cloud Vis
km
Sea
Height
m
Swell
Dir  Spd
kts
Gust
kts
hPa Trend Height
m
Period
s
Dir
24/11:30pm 6.6 NNW 7 12 1000.2 - 0.0 - - - - - - -
24/11:00pm 6.9 NNW 10 16 1000.5 - 0.0 - - - - - - -
24/10:30pm 6.9 NW 6 14 1000.7 - 0.0 - - - - - - -
24/10:00pm 6.5 NW 8 14 1001.0 - 0.0 - - - - - - -
24/09:30pm 6.5 NNW 6 12 1001.2 - 0.0 - - - - - - -
24/09:00pm 5.9 NNW 9 13 1001.5 - 0.0 - - - - - - -
24/08:30pm 5.7 N 8 12 1001.6 - 0.0 - - - - - - -
24/08:00pm 5.9 N 12 16 1001.8 - 0.0 - - - - - - -
24/07:30pm 6.0 N 13 16 1002.1 - 0.0 - - - - - - -
24/07:00pm 5.9 N 11 14 1002.2 - 0.0 - - - - - - -
24/06:30pm 5.4 N 10 13 1002.5 - 0.0 - - - - - - -
24/06:00pm 5.4 NNW 7 13 1002.3 - 0.0 - - - - - - -
24/05:30pm 5.6 NW 7 10 1002.2 - 0.0 - - - - - - -
24/05:00pm 5.9 NW 11 14 1002.3 - 0.0 - - - - - - -
24/04:30pm 6.2 NW 8 11 1002.6 - 0.0 - - - - - - -
24/04:00pm 6.3 NW 12 17 1002.7 - 0.0 - - - - - - -
24/03:30pm 6.8 NNW 9 14 1002.6 - 0.0 - - - - - - -
24/03:00pm 7.5 NW 9 13 1002.5 - 0.0 - - - - - - -
24/02:30pm 7.4 WNW 5 13 1002.3 - 0.0 - - - - - - -
24/02:00pm 7.5 NW 11 16 1002.5 - 0.0 - - - - - - -
24/01:30pm 7.1 NW 11 20 1002.8 - 0.0 - - - - - - -
24/01:00pm 6.9 NW 16 23 1002.9 - 0.0 - - - - - - -
24/12:30pm 6.8 WNW 9 19 1003.2 - 0.0 - - - - - - -
24/12:00pm 6.7 WNW 12 17 1003.5 - 0.0 - - - - - - -
24/11:30am 6.5 NW 6 14 1003.7 - 0.0 - - - - - - -
24/11:00am 6.3 W 6 19 1003.7 - 0.0 - - - - - - -
24/10:30am 5.8 NW 4 19 1003.8 - 0.0 - - - - - - -
24/10:00am 5.3 WNW 8 19 1003.8 - 0.0 - - - - - - -
24/09:30am 4.8 W 6 17 1003.8 - 0.0 - - - - - - -
24/09:00am 4.6 WNW 11 24 1003.8 - 16.2 - - - - - - -
24/08:30am 4.4 WNW 12 21 1003.7 - 16.2 - - - - - - -
24/08:00am 3.8 NW 16 26 1003.7 - 16.2 - - - - - - -
24/07:51am 4.1 WNW 12 26 1003.7 - 16.2 - - - - - - -
24/07:50am 4.2 WNW 11 23 1003.7 - 16.2 - - - - - - -
24/07:30am 4.0 W 4 13 1003.5 - 16.2 - - - - - - -
24/07:00am 3.9 WNW 10 21 1003.2 - 16.2 - - - - - - -
24/06:30am 3.8 WNW 6 19 1002.9 - 16.2 - - - - - - -
24/06:00am 4.1 NW 15 23 1002.7 - 16.2 - - - - - - -
24/05:30am 4.1 WNW 7 18 1002.5 - 16.2 - - - - - - -
24/05:00am 4.2 WNW 9 26 1002.1 - 16.2 - - - - - - -
24/04:41am 4.2 NW 15 27 1002.3 - 16.2 - - - - - - -
24/04:30am 4.2 WNW 13 25 1002.5 - 16.2 - - - - - - -
24/04:29am 4.2 WNW 12 25 1002.5 - 16.2 - - - - - - -
24/04:00am 4.6 WNW 7 18 1002.5 - 16.2 - - - - - - -
24/03:30am 4.4 WNW 6 19 1002.0 - 16.2 - - - - - - -
24/03:00am 3.8 NW 11 23 1002.0 - 16.2 - - - - - - -
24/02:30am 4.3 NW 7 21 1002.5 - 16.2 - - - - - - -
24/02:00am 3.6 WNW 7 20 1001.7 - 16.2 - - - - - - -
24/01:47am 3.1 ESE 10 31 1001.5 - 16.2 - - - - - - -
24/01:30am 4.1 N 6 23 1001.5 - 16.2 - - - - - - -
24/01:00am 3.4 WSW 13 27 1001.3 - 15.6 - - - - - - -
24/12:49am 2.8 WSW 15 31 1001.1 - 15.6 - - - - - - -
24/12:30am 2.4 WSW 14 33 1001.0 - 14.4 - - - - - - -
24/12:24am 2.7 WSW 11 33 1001.0 - 13.8 - - - - - - -
24/12:00am 2.6 W 14 37 1001.2 - 12.8 Rain - - - - - -
 
Date/Time
EST
Temp
°C
Wind Pressure Rain since
9am
mm
Weather Cloud Vis
km
Sea
Height
m
Swell
Dir  Spd
kts
Gust
kts
hPa Trend Height
m
Period
s
Dir
23/11:53pm 3.0 WSW 16 44 1000.9 - 12.2 - - - - - - -
23/11:49pm 4.4 SW 16 44 1000.1 - 12.0 - - - - - - -
23/11:47pm 4.7 SW 15 40 1000.7 - 12.0 - - - - - - -
23/11:30pm 4.1 SW 24 53 999.9 - 12.0 - - - - - - -
23/11:27pm 5.1 SW 20 53 999.8 - 12.0 - - - - - - -
23/11:05pm 4.7 SW 25 49 999.6 - 12.0 - - - - - - -
23/11:04pm 4.8 SW 26 49 999.7 - 12.0 - - - - - - -
23/11:00pm 4.7 SW 31 49 999.4 - 12.0 - - - - - - -
23/10:45pm 3.4 SW 21 45 999.5 - 11.8 - - - - - - -
23/10:43pm 3.4 SW 17 45 999.6 - 11.8 - - - - - - -
23/10:30pm 3.3 WSW 18 39 999.5 - 11.8 - - - - - - -
23/10:17pm 3.5 SSW 11 35 999.2 - 11.6 - - - - - - -
23/10:06pm 4.9 SW 20 44 998.5 - 11.6 - - - - - - -
23/10:00pm 5.3 SW 23 47 998.4 - 11.6 - - - - - - -
23/09:30pm 3.2 SW 27 60 998.2 - 11.6 - - - - - - -
23/09:25pm 2.5 SW 33 60 998.0 - 11.6 - - - - - - -
23/09:20pm 4.1 SW 27 58 996.8 - 11.6 - - - - - - -
23/09:19pm 4.5 SW 25 58 996.7 - 11.6 - - - - - - -
23/09:00pm 3.7 SW 22 45 997.5 - 11.6 Rain - - - - - -
23/08:49pm 3.8 SW 26 50 997.0 - 11.4 - - - - - - -
23/08:45pm 4.2 SW 35 61 996.9 - 11.4 - - - - - - -
23/08:30pm 4.8 SW 37 56 996.6 - 11.4 - - - - - - -
23/08:00pm 5.4 SW 37 57 995.7 - 11.4 - - - - - - -
23/07:51pm 5.6 SW 36 53 995.5 - 11.4 - - - - - - -
23/07:41pm 5.5 SW 35 59 994.8 - 11.4 - - - - - - -
23/07:38pm 5.5 SW 35 55 995.0 - 11.4 - - - - - - -
23/07:30pm 5.3 SW 37 55 994.7 - 11.4 - - - - - - -
23/07:00pm 4.4 SW 37 56 994.7 - 11.4 - - - - - - -
23/06:50pm 3.5 SW 35 58 994.1 - 11.4 - - - - - - -
23/06:45pm 3.5 SW 39 60 994.0 - 11.0 - - - - - - -
23/06:37pm 3.8 SW 27 55 993.7 - 10.8 - - - - - - -
23/06:35pm 5.2 SW 22 55 993.7 - 10.8 - - - - - - -
23/06:30pm 5.2 SW 21 43 993.6 - 10.8 - - - - - - -
23/06:03pm 4.6 SW 30 50 992.8 - 10.8 - - - - - - -
23/06:01pm 4.4 SW 31 52 993.0 - 10.8 - - - - - - -
23/06:00pm 4.3 SW 32 52 993.1 - 10.8 Recent precip. - - - - - -
23/05:55pm 3.9 SW 29 52 992.8 - 10.8 - - - - - - -
23/05:30pm 4.9 SW 27 57 991.8 - 10.8 - - - - - - -
23/05:07pm 4.3 SW 23 55 991.2 - 10.6 - - - - - - -
23/05:03pm 4.5 SW 22 46 991.3 - 10.6 - - - - - - -
23/05:00pm 3.6 WSW 21 41 991.6 - 10.6 - - - - - - -
23/04:53pm 2.8 SW 23 42 991.5 - 10.6 - - - - - - -
23/04:44pm 3.0 SW 29 57 991.2 - 10.4 - - - - - - -
23/04:43pm 2.9 SW 28 57 991.3 - 10.4 - - - - - - -
23/04:39pm 2.2 SW 21 57 991.0 - 10.4 - - - - - - -
23/04:38pm 2.6 WSW 19 53 991.0 - 10.4 - - - - - - -
23/04:30pm 4.1 WSW 19 42 991.1 - 10.4 - - - - - - -
23/04:19pm 2.3 WSW 23 53 990.6 - 10.0 - - - - - - -
23/04:16pm 2.2 WSW 21 53 990.3 - 10.0 - - - - - - -
23/04:00pm 2.6 SW 24 52 990.2 - 9.6 - - - - - - -
23/03:58pm 2.5 SW 23 52 990.2 - 9.6 - - - - - - -
23/03:52pm 2.9 SW 19 52 989.8 - 9.4 - - - - - - -
23/03:30pm 1.4 WSW 16 44 989.8 - 8.0 - - - - - - -
23/03:26pm 1.8 W 11 42 988.7 - 7.8 - - - - - - -
23/03:00pm 1.8 W 14 39 988.6 - 6.8 Rain - - - - - -
23/02:55pm 2.5 WSW 20 39 987.9 - 6.6 - - - - - - -
23/02:49pm 1.5 SW 25 52 988.5 - 5.8 - - - - - - -
23/02:43pm 1.8 WSW 18 47 988.1 - 5.6 - - - - - - -
23/02:34pm 3.8 SW 11 38 987.9 - 5.0 - - - - - - -
23/02:30pm 4.4 WSW 14 41 987.6 - 5.0 - - - - - - -
23/02:00pm 2.8 WSW 17 36 987.4 - 5.0 - - - - - - -
23/01:47pm 2.1 SW 31 55 987.3 - 4.6 - - - - - - -
23/01:38pm 2.0 SSE 18 55 986.9 - 3.8 - - - - - - -
23/01:37pm 2.3 SSE 15 43 987.3 - 3.8 - - - - - - -
23/01:30pm 3.1 N 10 28 986.2 - 3.6 - - - - - - -
23/01:00pm 1.8 N 12 39 986.2 - 2.2 - - - - - - -
23/12:57pm 1.8 NNE 12 39 986.5 - 2.0 - - - - - - -
23/12:30pm 3.6 SSW 10 31 985.9 - 1.8 - - - - - - -
23/12:00pm 3.7 NNW 8 27 985.9 - 1.8 - - - - - - -
23/11:30am 3.1 WSW 12 39 985.5 - 1.8 - - - - - - -
23/11:26am 3.4 W 7 37 985.4 - 1.8 - - - - - - -
23/11:00am 3.0 W 8 24 985.2 - 1.8 - - - - - - -
23/10:30am 2.7 W 7 22 985.6 - 1.8 - - - - - - -
23/10:12am 1.8 SW 12 43 985.0 - 1.8 - - - - - - -
23/10:03am 2.0 W 13 43 985.4 - 1.4 - - - - - - -
23/10:00am 2.0 W 15 43 985.2 - 1.4 - - - - - - -
23/09:36am 1.4 SSW 10 41 984.2 - 0.2 - - - - - - -
23/09:30am 3.1 WNW 7 22 984.2 - 0.2 - - - - - - -
23/09:00am 2.4 ENE 7 29 984.1 - - Recent precip. - - - - - -
23/08:30am 3.1 W 8 20 983.8 - - - - - - - - -
23/08:00am 2.5 W 8 22 983.4 - - - - - - - - -
23/07:37am 2.2 NW 11 40 983.2 - - - - - - - - -
23/07:30am 3.2 NNW 9 25 983.0 - - - - - - - - -
23/07:00am 2.3 WSW 16 39 982.6 - - - - - - - - -
23/06:46am 2.9 WSW 10 33 982.6 - - - - - - - - -
23/06:30am 3.9 W 6 18 982.3 - - - - - - - - -
23/06:00am 4.2 NE 6 16 982.0 - - - - - - - - -
23/05:30am 5.7 W 9 28 981.1 - - - - - - - - -
23/05:00am 5.4 WNW 18 29 981.1 - - - - - - - - -
23/04:34am 5.3 WNW 19 31 981.0 - - - - - - - - -
23/04:30am 5.3 WNW 20 28 980.9 - - - - - - - - -
23/04:00am 5.2 WNW 17 30 981.1 - - - - - - - - -
23/03:30am 5.2 WNW 17 28 981.5 - - - - - - - - -
23/03:27am 5.2 WNW 15 27 981.6 - - - - - - - - -
23/03:00am 4.9 WNW 16 22 981.8 - 0.0 - - - - - - -
23/02:30am 5.5 WNW 11 21 982.0 - - - - - - - - -
23/02:00am 5.4 NW 16 26 982.3 - - - - - - - - -
23/01:30am 5.7 NW 16 26 982.7 - - - - - - - - -
23/01:00am 5.7 NW 18 30 983.2 - - - - - - - - -
23/12:38am 5.7 WNW 15 25 983.6 - - - - - - - - -
23/12:30am 5.4 WNW 14 22 983.7 - - - - - - - - -
23/12:00am 5.5 WNW 15 25 984.1 - - - - - - - - -
 
Date/Time
EST
Temp
°C
Wind Pressure Rain since
9am
mm
Weather Cloud Vis
km
Sea
Height
m
Swell
Dir  Spd
kts
Gust
kts
hPa Trend Height
m
Period
s
Dir
22/11:58pm 5.5 NW 15 25 984.1 - - - - - - - - -
22/11:30pm 5.7 NW 8 19 983.9 - - - - - - - - -
22/11:00pm 5.9 NNW 9 25 984.1 - - - - - - - - -
22/10:30pm 6.0 ESE 5 15 984.1 - - - - - - - - -
22/10:00pm 6.2 WSW 7 24 984.3 - - - - - - - - -
22/09:30pm 6.2 W 7 21 984.4 - - - - - - - - -
22/09:00pm 6.0 NW 8 25 984.0 - - - - - - - - -
22/08:30pm 5.5 WSW 15 38 983.3 - - - - - - - - -
22/08:06pm 6.1 WSW 16 33 983.0 - - - - - - - - -
22/08:00pm 5.9 SW 10 31 982.8 - - - - - - - - -
22/07:30pm 5.8 WSW 13 31 982.4 - - - - - - - - -
22/07:27pm 5.9 WSW 12 31 982.2 - - - - - - - - -
22/07:00pm 7.0 ESE 6 22 982.1 - - - - - - - - -
22/06:30pm 6.9 E 7 33 981.6 - - - - - - - - -
22/06:08pm 7.4 WNW 15 30 979.9 - - - - - - - - -
22/06:00pm 7.3 WNW 14 32 980.0 - - Recent precip. - - - - - -
22/05:30pm 6.5 NW 11 43 979.4 - - - - - - - - -
22/05:21pm 6.6 WNW 14 43 979.1 - - - - - - - - -
22/05:12pm 7.3 SW 11 40 978.3 - 1.0 - - - - - - -
22/05:00pm 9.4 WNW 11 32 978.2 - 0.6 - - - - - - -
22/04:30pm 9.7 WNW 10 28 977.0 - 0.6 - - - - - - -
22/04:20pm 9.8 W 10 31 976.8 - 0.6 - - - - - - -
22/04:00pm 9.9 NW 22 41 977.0 - 0.6 - - - - - - -
22/03:49pm 10.0 WNW 28 44 976.9 - 0.6 - - - - - - -
22/03:30pm 10.3 NW 30 40 976.9 - 0.6 - - - - - - -
22/03:25pm 10.2 NW 26 39 976.9 - 0.6 - - - - - - -
22/03:23pm 10.4 NW 25 39 977.0 - 0.6 - - - - - - -
22/03:00pm 9.9 WNW 19 38 977.5 - 0.6 Recent precip. - - - - - -
22/02:50pm 9.6 NW 20 31 978.0 - 0.6 - - - - - - -
22/02:30pm 8.8 WNW 13 26 977.1 - 0.4 - - - - - - -
22/02:27pm 8.9 WSW 10 26 977.5 - 0.4 - - - - - - -
22/02:16pm 9.9 WNW 20 42 977.6 - 0.2 - - - - - - -
22/02:00pm 11.9 NW 26 40 978.0 - 0.0 - - - - - - -
22/01:30pm 13.6 NW 24 37 978.3 - 0.0 - - - - - - -
22/01:00pm 13.6 NW 24 37 978.8 - 0.0 - - - - - - -
22/12:30pm 13.5 NW 23 35 979.4 - 0.0 - - - - - - -

Other Formats:

Comma delimited format used in spreadsheet applications
http://www.bom.gov.au/fwo/IDT60701/IDT60701.95986.axf

JavaScript Object Notation format (JSON) in row-major order
http://www.bom.gov.au/fwo/IDT60701/IDT60701.95986.json